Time;durP1;ratioP1;P1;durP2;ratioP2;P2;SDS_P1;SDS_P2;PMS_P1;PMS_P2;Temp;Humidity;BMP_temperature;BMP_pressure;BME280_temperature;BME280_humidity;BME280_pressure;Samples;Min_cycle;Max_cycle;Signal;HPM_P1;HPM_P2
2022/05/31 00:00:32;;;;;;;;;;;14.80;73.40;;;;;;5069461;28;19943;-91
2022/05/31 00:02:59;;;;;;;;;;;14.80;73.40;;;;;;5068386;28;20559;-91
2022/05/31 00:05:27;;;;;;;;;;;14.80;73.60;;;;;;5081131;28;20389;-91
2022/05/31 00:07:54;;;;;;;;;;;14.80;73.60;;;;;;5065625;28;20352;-91
2022/05/31 00:10:21;;;;;;;;;;;14.70;73.60;;;;;;5083143;28;19934;-91
2022/05/31 00:12:48;;;;;;;;;;;14.70;73.70;;;;;;5070842;28;20325;-92
2022/05/31 00:15:19;;;;;;;;;;;14.70;73.80;;;;;;5083557;28;19932;-91
2022/05/31 00:17:47;;;;;;;;;;;14.60;73.80;;;;;;5087387;28;19924;-91
2022/05/31 00:20:14;;;;;;;;;;;14.60;73.80;;;;;;5081385;28;19931;-91
2022/05/31 00:22:42;;;;;;;;;;;14.60;73.90;;;;;;5082820;28;19928;-92
2022/05/31 00:25:09;;;;;;;;;;;14.60;74.00;;;;;;5085896;28;19924;-91
2022/05/31 00:27:39;;;;;;;;;;;14.50;73.90;;;;;;5083989;28;19982;-91
2022/05/31 00:30:06;;;;;;;;;;;14.50;74.00;;;;;;5069558;28;20401;-91
2022/05/31 00:32:36;;;;;;;;;;;14.50;74.10;;;;;;5081956;28;19928;-92
2022/05/31 00:35:08;;;;;;;;;;;14.40;74.10;;;;;;5084375;28;19973;-91
2022/05/31 00:37:35;;;;;;;;;;;14.40;74.10;;;;;;5087277;28;19967;-91
2022/05/31 00:40:03;;;;;;;;;;;14.40;74.20;;;;;;5084360;28;19924;-91
2022/05/31 00:42:46;;;;;;;;;;;14.40;74.30;;;;;;5065995;28;19938;-91
2022/05/31 00:45:13;;;;;;;;;;;14.30;74.20;;;;;;5087519;28;19962;-91
2022/05/31 00:47:45;;;;;;;;;;;14.30;74.20;;;;;;5065220;28;20390;-91
2022/05/31 00:50:15;;;;;;;;;;;14.30;74.30;;;;;;5067865;28;19931;-91
2022/05/31 00:52:44;;;;;;;;;;;14.20;74.30;;;;;;5065225;28;19928;-92
2022/05/31 00:55:13;;;;;;;;;;;14.20;74.30;;;;;;5067711;28;20217;-91
2022/05/31 00:57:47;;;;;;;;;;;14.20;74.30;;;;;;5090034;28;19924;-91
2022/05/31 01:00:18;;;;;;;;;;;14.20;74.40;;;;;;5084374;28;19924;-91
2022/05/31 01:02:50;;;;;;;;;;;14.20;74.50;;;;;;5066350;28;20036;-91
2022/05/31 01:05:19;;;;;;;;;;;14.10;74.50;;;;;;5072856;28;19932;-92
2022/05/31 01:07:47;;;;;;;;;;;14.10;74.60;;;;;;5068207;28;19931;-92
2022/05/31 01:10:15;;;;;;;;;;;14.10;74.60;;;;;;5082019;28;19932;-91
2022/05/31 01:12:43;;;;;;;;;;;14.00;74.60;;;;;;5083667;28;20383;-91
2022/05/31 01:15:29;;;;;;;;;;;14.00;74.70;;;;;;5086324;28;20433;-91
2022/05/31 01:18:16;;;;;;;;;;;14.00;74.80;;;;;;5083363;28;19931;-91
2022/05/31 01:21:03;;;;;;;;;;;14.00;74.80;;;;;;5082608;28;20029;-91
2022/05/31 01:23:46;;;;;;;;;;;13.90;74.80;;;;;;5067973;28;19971;-91
2022/05/31 01:26:15;;;;;;;;;;;13.90;74.80;;;;;;5068179;28;19996;-91
2022/05/31 01:28:47;;;;;;;;;;;13.90;74.80;;;;;;5072549;28;19973;-91
2022/05/31 01:31:17;;;;;;;;;;;13.90;74.90;;;;;;5085474;28;19924;-92
2022/05/31 01:33:46;;;;;;;;;;;13.80;74.90;;;;;;5082027;28;20378;-91
2022/05/31 01:36:16;;;;;;;;;;;13.80;74.90;;;;;;5075022;28;19939;-91
2022/05/31 01:38:46;;;;;;;;;;;13.80;75.00;;;;;;5088049;28;20316;-90
2022/05/31 01:41:19;;;;;;;;;;;13.80;75.10;;;;;;5072402;28;19932;-91
2022/05/31 01:43:46;;;;;;;;;;;13.70;75.00;;;;;;5075418;28;19924;-91
2022/05/31 01:46:16;;;;;;;;;;;13.70;75.00;;;;;;5092548;28;20002;-91
2022/05/31 01:48:44;;;;;;;;;;;13.70;75.10;;;;;;5073022;28;19970;-91
2022/05/31 01:51:11;;;;;;;;;;;13.70;75.10;;;;;;5073238;28;19935;-91
2022/05/31 01:53:40;;;;;;;;;;;13.60;75.10;;;;;;5073180;28;19946;-90
2022/05/31 01:56:09;;;;;;;;;;;13.60;75.10;;;;;;5072874;28;20171;-91
2022/05/31 01:58:38;;;;;;;;;;;13.60;75.10;;;;;;5072866;28;19924;-91
2022/05/31 02:01:06;;;;;;;;;;;13.60;75.10;;;;;;5068319;28;19924;-91
2022/05/31 02:03:33;;;;;;;;;;;13.50;75.00;;;;;;5077835;28;19924;-91
2022/05/31 02:06:01;;;;;;;;;;;13.50;75.10;;;;;;5068199;28;19932;-92
2022/05/31 02:08:31;;;;;;;;;;;13.50;75.10;;;;;;5062790;28;20373;-91
2022/05/31 02:11:04;;;;;;;;;;;13.50;75.20;;;;;;5083869;28;19928;-92
2022/05/31 02:13:33;;;;;;;;;;;13.50;75.20;;;;;;5086290;28;19929;-91
2022/05/31 02:16:09;;;;;;;;;;;13.40;75.00;;;;;;5067134;28;19933;-91
2022/05/31 02:21:53;;;;;;;;;;;13.40;75.20;;;;;;5084597;28;19955;-91
2022/05/31 02:24:21;;;;;;;;;;;13.30;75.30;;;;;;5079859;28;19924;-91
2022/05/31 02:26:49;;;;;;;;;;;13.30;75.30;;;;;;5082089;28;19924;-91
2022/05/31 02:29:18;;;;;;;;;;;13.30;75.40;;;;;;5065611;28;20024;-90
2022/05/31 02:31:45;;;;;;;;;;;13.30;76.00;;;;;;5081902;28;20015;-92
2022/05/31 02:34:13;;;;;;;;;;;13.20;75.30;;;;;;5065092;28;19924;-92
2022/05/31 02:36:41;;;;;;;;;;;13.20;75.30;;;;;;5081854;28;19971;-91
2022/05/31 02:39:08;;;;;;;;;;;13.20;75.40;;;;;;5068589;28;19935;-91
2022/05/31 02:41:38;;;;;;;;;;;13.20;75.40;;;;;;5065006;28;19925;-92
2022/05/31 02:44:07;;;;;;;;;;;13.20;75.50;;;;;;5061778;28;19924;-91
2022/05/31 02:46:36;;;;;;;;;;;13.10;75.60;;;;;;5083923;28;19947;-91
2022/05/31 02:49:04;;;;;;;;;;;13.10;75.50;;;;;;5063660;28;19938;-91
2022/05/31 02:51:34;;;;;;;;;;;13.10;75.50;;;;;;5080803;28;19960;-91
2022/05/31 02:54:02;;;;;;;;;;;13.00;75.50;;;;;;5083407;28;19972;-91
2022/05/31 02:56:49;;;;;;;;;;;13.00;75.50;;;;;;5103757;22;19930;-82
2022/05/31 02:59:38;;;;;;;;;;;13.00;75.50;;;;;;5117230;27;20012;-82
2022/05/31 03:02:23;;;;;;;;;;;13.00;75.50;;;;;;5118025;27;19942;-82
2022/05/31 03:05:09;;;;;;;;;;;12.90;75.50;;;;;;5124729;27;19934;-81
2022/05/31 03:07:56;;;;;;;;;;;12.90;75.50;;;;;;5097196;27;19924;-82
2022/05/31 03:10:28;;;;;;;;;;;12.90;75.60;;;;;;5123082;27;20839;-80
2022/05/31 03:12:55;;;;;;;;;;;12.80;75.50;;;;;;5122480;27;19931;-83
2022/05/31 03:15:25;;;;;;;;;;;12.80;75.50;;;;;;5135797;27;20018;-83
2022/05/31 03:17:55;;;;;;;;;;;12.80;75.60;;;;;;5121227;27;19945;-82
2022/05/31 03:20:23;;;;;;;;;;;12.80;75.60;;;;;;5122255;27;19930;-82
2022/05/31 03:22:52;;;;;;;;;;;12.80;75.70;;;;;;5119661;27;19969;-82
2022/05/31 03:25:21;;;;;;;;;;;12.70;75.70;;;;;;5125300;27;19929;-83
2022/05/31 03:27:48;;;;;;;;;;;12.70;75.70;;;;;;5130356;27;19930;-82
2022/05/31 03:30:15;;;;;;;;;;;12.70;75.70;;;;;;5116433;27;19971;-82
2022/05/31 03:32:44;;;;;;;;;;;12.70;75.80;;;;;;5124266;27;19931;-83
2022/05/31 03:35:11;;;;;;;;;;;12.60;75.70;;;;;;5115867;27;19959;-82
2022/05/31 03:37:40;;;;;;;;;;;12.60;75.80;;;;;;5134386;27;19927;-82
2022/05/31 03:43:10;;;;;;;;;;;12.50;75.80;;;;;;5119741;27;19994;-82
2022/05/31 03:45:39;;;;;;;;;;;12.50;76.00;;;;;;5108975;27;20401;-82
2022/05/31 03:48:27;;;;;;;;;;;12.50;75.90;;;;;;5125167;27;19937;-82
2022/05/31 03:51:00;;;;;;;;;;;12.50;76.00;;;;;;5123287;27;20436;-82
2022/05/31 03:53:28;;;;;;;;;;;12.50;76.00;;;;;;5123014;27;20454;-82
2022/05/31 03:55:58;;;;;;;;;;;12.40;76.00;;;;;;5121385;27;19932;-83
2022/05/31 03:58:25;;;;;;;;;;;12.40;76.10;;;;;;5122077;27;19939;-82
2022/05/31 04:00:56;;;;;;;;;;;12.40;76.00;;;;;;5121250;27;19935;-82
2022/05/31 04:03:27;;;;;;;;;;;12.40;76.10;;;;;;5116114;27;19988;-82
2022/05/31 04:05:54;;;;;;;;;;;12.30;76.20;;;;;;5122004;27;19932;-81
2022/05/31 04:08:24;;;;;;;;;;;12.30;76.30;;;;;;5142713;27;20266;-82
2022/05/31 04:10:52;;;;;;;;;;;12.30;76.40;;;;;;5126899;27;19974;-82
2022/05/31 04:13:19;;;;;;;;;;;12.30;76.50;;;;;;5124414;27;19930;-81
2022/05/31 04:16:26;;;;;;;;;;;12.20;76.40;;;;;;5079959;28;19924;-82
2022/05/31 04:19:04;;;;;;;;;;;12.20;76.50;;;;;;5081683;28;19932;-81
2022/05/31 04:21:32;;;;;;;;;;;12.20;76.50;;;;;;5098587;27;20387;-82
2022/05/31 04:23:58;;;;;;;;;;;12.20;76.60;;;;;;5115054;27;19923;-82
2022/05/31 04:26:46;;;;;;;;;;;12.20;76.70;;;;;;5127170;27;23353;-82
2022/05/31 04:29:32;;;;;;;;;;;12.20;76.60;;;;;;5123300;27;19930;-81
2022/05/31 04:32:02;;;;;;;;;;;12.10;76.50;;;;;;5120612;27;20647;-82
2022/05/31 04:34:56;;;;;;;;;;;12.10;76.70;;;;;;5114673;27;20161;-82
2022/05/31 04:37:23;;;;;;;;;;;12.10;76.70;;;;;;5120578;27;20316;-82
2022/05/31 04:40:12;;;;;;;;;;;12.10;76.60;;;;;;5129316;27;19923;-82
2022/05/31 04:43:00;;;;;;;;;;;12.00;76.50;;;;;;5119640;27;20045;-80
2022/05/31 04:45:45;;;;;;;;;;;12.00;76.50;;;;;;5123479;27;20172;-79
2022/05/31 04:48:41;;;;;;;;;;;12.00;76.50;;;;;;5109808;27;19932;-82
2022/05/31 04:51:09;;;;;;;;;;;12.00;76.40;;;;;;5118621;27;19996;-83
2022/05/31 04:53:44;;;;;;;;;;;12.00;76.40;;;;;;5121072;27;19935;-81
2022/05/31 04:56:22;;;;;;;;;;;11.90;76.60;;;;;;5119993;27;19923;-82
2022/05/31 04:58:51;;;;;;;;;;;11.90;76.60;;;;;;5118833;27;19959;-80
2022/05/31 05:01:21;;;;;;;;;;;11.80;76.80;;;;;;5119522;27;19938;-81
2022/05/31 05:03:51;;;;;;;;;;;11.60;78.10;;;;;;5122328;27;19976;-82
2022/05/31 05:06:20;;;;;;;;;;;11.50;78.90;;;;;;5137520;27;20278;-82
2022/05/31 05:08:50;;;;;;;;;;;11.50;79.20;;;;;;5126195;27;20006;-81
2022/05/31 05:11:19;;;;;;;;;;;11.50;79.50;;;;;;5124018;27;20037;-81
2022/05/31 05:14:08;;;;;;;;;;;11.50;79.50;;;;;;5120705;27;20409;-82
2022/05/31 05:16:58;;;;;;;;;;;11.50;78.60;;;;;;5121779;27;20550;-80
2022/05/31 05:19:26;;;;;;;;;;;11.50;81.00;;;;;;5133296;27;19964;-82
2022/05/31 05:22:03;;;;;;;;;;;11.40;81.10;;;;;;5121259;27;19927;-81
2022/05/31 05:24:30;;;;;;;;;;;11.40;81.60;;;;;;5119247;27;19931;-82
2022/05/31 05:27:20;;;;;;;;;;;11.50;81.40;;;;;;5128873;27;20003;-81
2022/05/31 05:33:03;;;;;;;;;;;11.50;82.20;;;;;;5136829;27;19927;-82
2022/05/31 05:35:33;;;;;;;;;;;11.60;81.70;;;;;;5121085;27;20205;-81
2022/05/31 05:38:13;;;;;;;;;;;11.60;82.40;;;;;;5121474;27;19960;-82
2022/05/31 05:40:58;;;;;;;;;;;11.70;82.60;;;;;;5125150;27;20061;-81
2022/05/31 05:43:43;;;;;;;;;;;11.80;82.70;;;;;;5116711;27;19930;-82
2022/05/31 05:46:15;;;;;;;;;;;11.80;82.90;;;;;;5120330;27;19938;-82
2022/05/31 05:48:43;;;;;;;;;;;11.80;82.90;;;;;;5130897;27;20385;-83
2022/05/31 05:51:14;;;;;;;;;;;11.80;83.50;;;;;;5125896;27;19968;-81
2022/05/31 05:54:11;;;;;;;;;;;11.70;83.60;;;;;;5119666;27;19924;-81
2022/05/31 05:56:56;;;;;;;;;;;11.80;84.10;;;;;;5118781;27;19939;-81
2022/05/31 05:59:42;;;;;;;;;;;11.80;84.00;;;;;;5122446;27;19976;-80
2022/05/31 06:02:32;;;;;;;;;;;11.80;84.10;;;;;;5093163;27;20010;-80
2022/05/31 06:05:21;;;;;;;;;;;11.80;83.60;;;;;;5126474;27;19927;-79
2022/05/31 06:07:51;;;;;;;;;;;11.80;83.20;;;;;;5122658;27;19923;-80
2022/05/31 06:10:20;;;;;;;;;;;11.80;83.00;;;;;;5123347;27;19949;-79
2022/05/31 06:12:49;;;;;;;;;;;11.90;82.90;;;;;;5123958;27;19924;-80
2022/05/31 06:15:18;;;;;;;;;;;11.90;82.80;;;;;;5119147;27;19938;-79
2022/05/31 06:17:47;;;;;;;;;;;11.90;82.60;;;;;;5123093;27;19931;-80
2022/05/31 06:20:14;;;;;;;;;;;11.90;82.50;;;;;;5119643;27;19928;-79
2022/05/31 06:22:42;;;;;;;;;;;11.90;82.50;;;;;;5128842;27;19927;-79
2022/05/31 06:25:29;;;;;;;;;;;11.90;82.50;;;;;;5126006;27;19930;-80
2022/05/31 06:28:17;;;;;;;;;;;11.90;82.50;;;;;;5117791;27;19928;-80
2022/05/31 06:30:44;;;;;;;;;;;11.90;82.40;;;;;;5120481;27;20296;-80
2022/05/31 06:33:12;;;;;;;;;;;11.90;82.20;;;;;;5124911;27;20212;-80
2022/05/31 06:35:40;;;;;;;;;;;11.90;82.20;;;;;;5125945;27;19923;-80
2022/05/31 06:38:09;;;;;;;;;;;11.90;82.20;;;;;;5118749;27;20297;-80
2022/05/31 06:40:40;;;;;;;;;;;11.90;82.10;;;;;;5127943;27;20022;-80
2022/05/31 06:43:25;;;;;;;;;;;11.90;82.10;;;;;;5126876;27;20041;-80
2022/05/31 06:46:12;;;;;;;;;;;11.90;82.20;;;;;;5127563;27;19931;-80
2022/05/31 06:48:57;;;;;;;;;;;12.00;82.40;;;;;;5127140;27;19930;-79
2022/05/31 06:57:32;;;;;;;;;;;12.00;82.20;;;;;;5127248;27;19923;-79
2022/05/31 07:00:11;;;;;;;;;;;12.00;82.30;;;;;;5116434;27;20437;-79
2022/05/31 07:02:38;;;;;;;;;;;12.00;82.30;;;;;;5120951;27;19927;-79
2022/05/31 07:05:06;;;;;;;;;;;12.00;82.40;;;;;;5125793;27;19949;-79
2022/05/31 07:07:34;;;;;;;;;;;12.10;82.60;;;;;;5139358;27;19923;-80
2022/05/31 07:10:01;;;;;;;;;;;12.10;82.70;;;;;;5131081;27;19973;-80
2022/05/31 07:12:52;;;;;;;;;;;12.10;82.70;;;;;;5126180;27;19967;-80
2022/05/31 07:15:37;;;;;;;;;;;12.10;82.70;;;;;;5119874;27;19931;-80
2022/05/31 07:18:24;;;;;;;;;;;12.10;82.60;;;;;;5130316;27;19932;-80
2022/05/31 07:20:51;;;;;;;;;;;12.10;82.60;;;;;;5120211;27;20010;-79
2022/05/31 07:23:19;;;;;;;;;;;12.20;82.60;;;;;;5122620;27;19990;-79
2022/05/31 07:25:53;;;;;;;;;;;12.20;82.60;;;;;;5125155;27;19931;-80
2022/05/31 07:28:28;;;;;;;;;;;12.20;82.80;;;;;;5114482;27;19927;-79
2022/05/31 07:30:58;;;;;;;;;;;12.20;82.80;;;;;;5126848;28;19935;-80
2022/05/31 07:33:26;;;;;;;;;;;12.20;82.80;;;;;;5124761;28;19923;-80
2022/05/31 07:35:55;;;;;;;;;;;12.20;82.70;;;;;;5122345;28;20121;-80
2022/05/31 07:38:26;;;;;;;;;;;12.20;82.90;;;;;;5126656;27;19959;-80
2022/05/31 07:40:54;;;;;;;;;;;12.20;82.90;;;;;;5123650;28;20335;-80
2022/05/31 07:43:21;;;;;;;;;;;12.30;83.10;;;;;;5125184;27;19931;-80
2022/05/31 07:45:59;;;;;;;;;;;12.30;83.20;;;;;;5121102;28;19924;-80
2022/05/31 07:48:26;;;;;;;;;;;12.30;83.20;;;;;;5124303;27;19927;-80
2022/05/31 07:50:53;;;;;;;;;;;12.30;83.20;;;;;;5116976;28;19930;-79
2022/05/31 07:53:38;;;;;;;;;;;12.30;83.20;;;;;;5127778;28;19996;-80
2022/05/31 07:56:24;;;;;;;;;;;12.40;83.40;;;;;;5127258;28;20427;-80
2022/05/31 07:59:10;;;;;;;;;;;12.40;83.60;;;;;;5121141;28;19931;-80
2022/05/31 08:02:05;;;;;;;;;;;12.40;83.80;;;;;;5123259;27;19931;-80
2022/05/31 08:04:43;;;;;;;;;;;12.50;84.10;;;;;;5124786;28;19923;-80
2022/05/31 08:07:11;;;;;;;;;;;12.50;84.30;;;;;;5113094;28;19923;-80
2022/05/31 08:09:38;;;;;;;;;;;12.50;85.30;;;;;;5119882;28;19963;-79
2022/05/31 08:12:09;;;;;;;;;;;12.50;84.60;;;;;;5124438;27;19937;-80
2022/05/31 08:14:36;;;;;;;;;;;12.50;84.80;;;;;;5125126;27;19928;-80
2022/05/31 08:17:03;;;;;;;;;;;12.60;85.10;;;;;;5127995;27;20582;-80
2022/05/31 08:19:34;;;;;;;;;;;12.60;85.50;;;;;;5124942;28;20010;-80
2022/05/31 08:22:01;;;;;;;;;;;12.60;85.10;;;;;;5124039;28;20485;-80
2022/05/31 08:24:29;;;;;;;;;;;12.70;85.20;;;;;;5122644;27;19924;-80
2022/05/31 08:26:55;;;;;;;;;;;12.70;85.20;;;;;;5127713;28;19927;-80
2022/05/31 08:29:23;;;;;;;;;;;12.70;85.60;;;;;;5120006;27;19923;-79
2022/05/31 08:31:50;;;;;;;;;;;12.70;85.60;;;;;;5124046;27;19924;-80
2022/05/31 08:34:17;;;;;;;;;;;12.70;85.60;;;;;;5128084;27;19927;-80
2022/05/31 08:36:45;;;;;;;;;;;12.80;86.00;;;;;;5128618;27;19923;-80
2022/05/31 08:39:12;;;;;;;;;;;12.80;85.80;;;;;;5130291;27;19924;-80
2022/05/31 08:41:44;;;;;;;;;;;12.80;85.80;;;;;;5134529;27;19939;-80
2022/05/31 08:44:16;;;;;;;;;;;12.80;86.20;;;;;;5127442;27;19923;-80
2022/05/31 08:47:00;;;;;;;;;;;12.80;86.20;;;;;;5127807;27;20122;-80
2022/05/31 08:52:20;;;;;;;;;;;12.90;86.40;;;;;;5133408;27;20014;-80
2022/05/31 08:57:36;;;;;;;;;;;12.90;86.40;;;;;;5125607;27;19920;-80
2022/05/31 09:00:04;;;;;;;;;;;13.00;87.30;;;;;;5132325;27;19964;-80
2022/05/31 09:02:33;;;;;;;;;;;13.10;87.20;;;;;;5125823;27;19932;-80
2022/05/31 09:05:04;;;;;;;;;;;13.10;87.00;;;;;;5133273;27;19924;-80
2022/05/31 09:07:36;;;;;;;;;;;13.10;87.10;;;;;;5130071;27;19995;-80
2022/05/31 09:10:05;;;;;;;;;;;13.10;87.00;;;;;;5129284;27;19931;-80
2022/05/31 09:12:37;;;;;;;;;;;13.20;87.10;;;;;;5123739;22;19924;-83
2022/05/31 09:15:07;;;;;;;;;;;13.20;87.50;;;;;;5076989;28;20015;-83
2022/05/31 09:17:41;;;;;;;;;;;13.20;88.00;;;;;;5098178;28;19948;-83
2022/05/31 09:20:10;;;;;;;;;;;13.30;88.70;;;;;;5096944;28;19924;-82
2022/05/31 09:22:41;;;;;;;;;;;13.30;88.20;;;;;;5096236;28;19931;-83
2022/05/31 09:25:09;;;;;;;;;;;13.30;88.70;;;;;;5098264;28;19927;-83
2022/05/31 09:27:41;;;;;;;;;;;13.30;89.00;;;;;;5093889;28;19935;-83
2022/05/31 09:30:11;;;;;;;;;;;13.40;88.90;;;;;;5098759;28;19950;-82
2022/05/31 09:32:48;;;;;;;;;;;13.40;88.70;;;;;;5083271;28;19950;-83
2022/05/31 09:35:32;;;;;;;;;;;13.40;88.20;;;;;;5071613;28;19998;-82
2022/05/31 09:38:08;;;;;;;;;;;13.50;88.40;;;;;;5083841;28;19936;-83
2022/05/31 09:40:46;;;;;;;;;;;13.50;89.10;;;;;;5082474;28;19951;-82
2022/05/31 09:43:18;;;;;;;;;;;13.50;88.40;;;;;;5103105;28;20345;-83
2022/05/31 09:45:49;;;;;;;;;;;13.50;89.40;;;;;;5074951;28;19932;-83
2022/05/31 09:48:18;;;;;;;;;;;13.60;89.10;;;;;;5078744;28;19932;-83
2022/05/31 09:50:45;;;;;;;;;;;13.60;89.30;;;;;;5090865;28;19934;-82
2022/05/31 09:59:11;;;;;;;;;;;13.70;89.60;;;;;;5089215;28;19924;-83
2022/05/31 10:02:13;;;;;;;;;;;13.80;90.00;;;;;;5056805;28;19925;-82
2022/05/31 10:04:44;;;;;;;;;;;13.80;90.10;;;;;;5086488;28;19963;-82
2022/05/31 10:07:11;;;;;;;;;;;13.80;89.90;;;;;;5089849;28;19974;-83
2022/05/31 10:09:41;;;;;;;;;;;13.90;90.10;;;;;;5077070;28;19983;-82
2022/05/31 10:12:20;;;;;;;;;;;13.90;90.30;;;;;;5089551;28;19924;-82
2022/05/31 10:14:48;;;;;;;;;;;13.90;90.00;;;;;;5082546;28;19995;-83
2022/05/31 10:17:29;;;;;;;;;;;13.90;90.10;;;;;;5070137;28;19924;-83
2022/05/31 10:20:07;;;;;;;;;;;14.00;90.20;;;;;;5090445;28;19948;-83
2022/05/31 10:22:35;;;;;;;;;;;14.00;90.20;;;;;;5098563;28;20097;-82
2022/05/31 10:25:23;;;;;;;;;;;14.10;90.20;;;;;;5097553;28;19938;-82
2022/05/31 10:28:12;;;;;;;;;;;14.10;90.20;;;;;;5081007;28;19935;-83
2022/05/31 10:30:44;;;;;;;;;;;14.30;90.70;;;;;;5090366;28;19929;-81
2022/05/31 10:33:34;;;;;;;;;;;14.40;90.30;;;;;;5077605;28;20411;-81
2022/05/31 10:36:07;;;;;;;;;;;14.40;90.10;;;;;;5071967;28;19975;-80
2022/05/31 10:38:35;;;;;;;;;;;14.50;90.00;;;;;;5093008;28;19928;-81
2022/05/31 10:41:05;;;;;;;;;;;14.40;89.50;;;;;;5088646;28;19942;-84
2022/05/31 10:43:34;;;;;;;;;;;14.50;89.50;;;;;;5068139;28;19928;-84
2022/05/31 10:46:04;;;;;;;;;;;14.50;89.40;;;;;;5084431;28;19932;-78
2022/05/31 10:48:31;;;;;;;;;;;14.50;89.30;;;;;;5081193;28;20007;-82
2022/05/31 10:51:01;;;;;;;;;;;14.50;88.60;;;;;;5085562;28;19924;-80
2022/05/31 10:53:35;;;;;;;;;;;14.50;88.70;;;;;;5090588;28;19977;-80
2022/05/31 10:56:10;;;;;;;;;;;14.60;88.50;;;;;;5086993;28;19955;-80
2022/05/31 10:58:47;;;;;;;;;;;14.60;88.50;;;;;;5091103;28;19924;-80
2022/05/31 11:01:19;;;;;;;;;;;14.70;88.60;;;;;;5084035;28;20398;-81
2022/05/31 11:03:51;;;;;;;;;;;14.70;88.20;;;;;;5067035;28;19999;-81
2022/05/31 11:06:25;;;;;;;;;;;14.70;88.00;;;;;;5091449;28;20301;-81
2022/05/31 11:11:48;;;;;;;;;;;14.80;87.90;;;;;;5086111;28;19943;-81
2022/05/31 11:14:31;;;;;;;;;;;14.80;88.10;;;;;;5087985;28;19950;-80
2022/05/31 11:17:08;;;;;;;;;;;14.90;88.20;;;;;;5090233;28;19928;-81
2022/05/31 11:19:43;;;;;;;;;;;14.90;88.50;;;;;;5080960;28;20349;-80
2022/05/31 11:22:26;;;;;;;;;;;15.00;88.40;;;;;;5084544;28;19951;-80
2022/05/31 11:25:19;;;;;;;;;;;15.00;88.20;;;;;;5057831;28;19928;-80
2022/05/31 11:27:54;;;;;;;;;;;15.50;86.90;;;;;;5080669;28;19928;-80
2022/05/31 11:30:22;;;;;;;;;;;16.00;86.30;;;;;;5082798;28;20493;-78
2022/05/31 11:33:19;;;;;;;;;;;16.20;85.10;;;;;;5073354;28;19924;-79
2022/05/31 11:35:55;;;;;;;;;;;16.20;85.40;;;;;;4986474;28;19929;-79
2022/05/31 11:38:26;;;;;;;;;;;16.40;84.00;;;;;;5065013;28;19931;-78
2022/05/31 11:40:59;;;;;;;;;;;16.70;82.30;;;;;;5072254;28;20699;-77
2022/05/31 11:43:44;;;;;;;;;;;16.70;82.20;;;;;;5073384;28;19958;-78
2022/05/31 11:46:19;;;;;;;;;;;16.60;83.50;;;;;;5070120;28;19932;-78
2022/05/31 11:48:57;;;;;;;;;;;16.80;81.90;;;;;;5079860;28;19928;-78
2022/05/31 11:51:41;;;;;;;;;;;16.80;82.30;;;;;;5075982;28;19969;-78
2022/05/31 11:54:18;;;;;;;;;;;16.70;83.30;;;;;;5071922;28;19928;-78
2022/05/31 11:56:48;;;;;;;;;;;16.60;84.30;;;;;;5065883;28;20031;-79
2022/05/31 11:59:16;;;;;;;;;;;16.50;84.00;;;;;;5074236;28;19924;-79
2022/05/31 12:01:48;;;;;;;;;;;16.50;83.80;;;;;;5076939;28;19934;-80
2022/05/31 12:04:19;;;;;;;;;;;16.50;84.00;;;;;;5088297;28;20397;-79
2022/05/31 12:06:49;;;;;;;;;;;16.50;84.50;;;;;;5084402;28;19924;-80
2022/05/31 12:09:19;;;;;;;;;;;16.50;84.60;;;;;;5088009;28;20423;-80
2022/05/31 12:14:15;;;;;;;;;;;16.50;85.00;;;;;;5083374;28;19928;-80
2022/05/31 12:16:43;;;;;;;;;;;16.50;85.70;;;;;;5077085;28;20443;-80
2022/05/31 12:19:15;;;;;;;;;;;16.50;85.00;;;;;;5069543;28;19971;-80
2022/05/31 12:21:44;;;;;;;;;;;16.50;84.80;;;;;;5066045;28;19924;-80
2022/05/31 12:24:16;;;;;;;;;;;16.50;84.80;;;;;;5089724;28;19977;-80
2022/05/31 12:26:50;;;;;;;;;;;16.60;85.10;;;;;;5083879;28;20412;-80
2022/05/31 12:29:21;;;;;;;;;;;16.50;85.20;;;;;;5067531;28;20131;-80
2022/05/31 12:31:48;;;;;;;;;;;16.60;85.40;;;;;;5085687;28;19928;-80
2022/05/31 12:34:34;;;;;;;;;;;16.60;85.60;;;;;;5083537;28;19928;-80
2022/05/31 12:37:03;;;;;;;;;;;16.60;85.70;;;;;;5079420;28;19931;-79
2022/05/31 12:39:33;;;;;;;;;;;16.60;85.70;;;;;;5069068;28;19950;-80
2022/05/31 12:42:05;;;;;;;;;;;16.60;85.70;;;;;;5082837;28;19972;-80
2022/05/31 12:44:33;;;;;;;;;;;16.60;85.60;;;;;;5087524;28;19930;-80
2022/05/31 12:47:18;;;;;;;;;;;16.70;85.80;;;;;;5071932;28;20486;-80
2022/05/31 12:49:51;;;;;;;;;;;16.70;85.80;;;;;;5068286;28;19924;-80
2022/05/31 12:55:11;;;;;;;;;;;16.70;85.90;;;;;;5084790;28;20434;-80
2022/05/31 12:58:26;;;;;;;;;;;16.70;85.90;;;;;;5082843;28;19924;-80
2022/05/31 13:00:48;;;;;;;;;;;16.70;86.00;;;;;;5082315;28;19924;-80
2022/05/31 13:03:34;;;;;;;;;;;16.70;86.10;;;;;;5084273;28;19981;-80
2022/05/31 13:06:02;;;;;;;;;;;16.80;86.30;;;;;;5086354;28;19935;-81
2022/05/31 13:09:03;;;;;;;;;;;16.80;86.40;;;;;;5079581;28;19930;-80
2022/05/31 13:20:05;;;;;;;;;;;16.80;86.50;;;;;;5060866;28;20030;-80
2022/05/31 13:22:37;;;;;;;;;;;16.80;86.60;;;;;;5086590;28;19951;-80
2022/05/31 13:25:06;;;;;;;;;;;16.90;86.70;;;;;;5085991;28;19928;-80
2022/05/31 13:27:38;;;;;;;;;;;16.90;86.70;;;;;;5076720;28;20665;-79
2022/05/31 13:30:09;;;;;;;;;;;16.90;86.80;;;;;;5082582;28;20438;-80
2022/05/31 13:32:37;;;;;;;;;;;16.90;86.90;;;;;;5069763;28;19924;-80
2022/05/31 13:35:09;;;;;;;;;;;16.90;87.00;;;;;;5086455;28;19932;-79
2022/05/31 13:37:47;;;;;;;;;;;16.90;87.10;;;;;;5061230;28;19978;-80
2022/05/31 13:40:16;;;;;;;;;;;16.90;87.20;;;;;;5084512;28;19928;-80
2022/05/31 13:42:45;;;;;;;;;;;17.00;87.50;;;;;;5070491;28;19924;-81
2022/05/31 13:45:18;;;;;;;;;;;17.00;87.40;;;;;;5078559;28;19924;-79
2022/05/31 13:47:49;;;;;;;;;;;17.00;87.50;;;;;;5081560;28;20374;-80
2022/05/31 13:50:19;;;;;;;;;;;17.10;87.60;;;;;;5078560;28;20394;-80
2022/05/31 13:52:48;;;;;;;;;;;17.10;87.70;;;;;;5084200;28;19931;-81
2022/05/31 13:55:19;;;;;;;;;;;17.10;88.00;;;;;;5082972;28;19925;-80
2022/05/31 13:57:53;;;;;;;;;;;17.10;88.00;;;;;;5086169;28;19924;-80
2022/05/31 14:00:35;;;;;;;;;;;17.10;88.00;;;;;;5069424;28;22759;-80
2022/05/31 14:03:06;;;;;;;;;;;17.10;88.40;;;;;;5067478;28;19929;-80
2022/05/31 14:05:35;;;;;;;;;;;17.10;88.70;;;;;;5070505;28;19924;-80
2022/05/31 14:08:02;;;;;;;;;;;17.10;89.40;;;;;;5066175;28;20378;-80
2022/05/31 14:10:32;;;;;;;;;;;17.10;89.40;;;;;;5086821;28;20375;-80
2022/05/31 14:13:03;;;;;;;;;;;17.10;89.70;;;;;;5081006;28;19979;-80
2022/05/31 14:15:31;;;;;;;;;;;17.10;90.00;;;;;;5079396;28;19924;-81
2022/05/31 14:18:05;;;;;;;;;;;17.10;90.10;;;;;;5070705;28;19970;-80
2022/05/31 14:20:35;;;;;;;;;;;17.10;90.50;;;;;;5085541;28;19924;-80
2022/05/31 14:23:04;;;;;;;;;;;17.10;90.90;;;;;;5059922;28;20347;-80
2022/05/31 14:25:31;;;;;;;;;;;17.20;90.90;;;;;;5086430;28;19939;-80
2022/05/31 14:27:58;;;;;;;;;;;17.10;91.10;;;;;;5083255;28;19924;-80
2022/05/31 14:30:31;;;;;;;;;;;17.10;91.00;;;;;;5086568;28;19924;-80
2022/05/31 14:33:01;;;;;;;;;;;17.10;90.90;;;;;;5084375;28;19956;-80
2022/05/31 14:35:30;;;;;;;;;;;17.10;90.70;;;;;;5062424;28;19932;-80
2022/05/31 14:37:57;;;;;;;;;;;17.10;90.70;;;;;;5085585;28;19961;-80
2022/05/31 14:40:26;;;;;;;;;;;17.10;90.70;;;;;;5062213;28;19942;-80
2022/05/31 14:42:57;;;;;;;;;;;17.10;90.50;;;;;;5061493;28;19938;-80
2022/05/31 14:45:29;;;;;;;;;;;17.10;90.40;;;;;;5060652;28;19964;-80
2022/05/31 14:47:58;;;;;;;;;;;17.10;90.30;;;;;;5063913;28;19946;-80
2022/05/31 14:50:31;;;;;;;;;;;17.10;90.20;;;;;;5077194;28;19964;-81
2022/05/31 14:52:59;;;;;;;;;;;17.10;90.30;;;;;;5067830;28;20333;-80
2022/05/31 14:55:28;;;;;;;;;;;17.10;90.30;;;;;;5089196;28;19930;-80
2022/05/31 15:00:46;;;;;;;;;;;17.10;90.30;;;;;;5077110;28;19997;-80
2022/05/31 15:03:24;;;;;;;;;;;17.10;90.20;;;;;;5078761;28;19924;-79
2022/05/31 15:05:56;;;;;;;;;;;17.10;90.20;;;;;;5076152;28;20367;-80
2022/05/31 15:08:31;;;;;;;;;;;17.10;90.10;;;;;;5074574;28;20334;-79
2022/05/31 15:18:56;;;;;;;;;;;17.10;90.10;;;;;;5073781;28;19924;-80
2022/05/31 15:19:30;;;;;;;;;;;17.10;90.40;;;;;;5061859;28;19920;-80
2022/05/31 15:21:57;;;;;;;;;;;17.10;90.50;;;;;;5085602;28;20390;-80
2022/05/31 15:24:26;;;;;;;;;;;17.10;90.60;;;;;;5087355;28;19974;-80
2022/05/31 15:26:53;;;;;;;;;;;17.10;90.50;;;;;;5082540;28;19928;-80
2022/05/31 15:29:20;;;;;;;;;;;17.10;90.40;;;;;;5087010;28;19924;-80
2022/05/31 15:31:48;;;;;;;;;;;17.10;90.30;;;;;;5057165;28;19940;-79
2022/05/31 15:34:15;;;;;;;;;;;17.10;90.40;;;;;;5092215;22;19943;-81
2022/05/31 15:36:44;;;;;;;;;;;17.10;90.70;;;;;;5102586;28;19927;-80
2022/05/31 15:39:12;;;;;;;;;;;17.20;91.10;;;;;;5100795;28;19923;-82
2022/05/31 15:41:40;;;;;;;;;;;17.20;91.10;;;;;;5098922;28;19977;-81